Time;durP1;ratioP1;P1;durP2;ratioP2;P2;SDS_P1;SDS_P2;PMS_P1;PMS_P2;Temp;Humidity;BMP_temperature;BMP_pressure;BME280_temperature;BME280_humidity;BME280_pressure;Samples;Min_cycle;Max_cycle;Signal;HPM_P1;HPM_P2
2021/07/03 00:01:59;;;;;;;;;;;12.40;99.90;;;;;;5040169;28;20285;-66
2021/07/03 00:04:50;;;;;;;;;;;12.40;99.90;;;;;;5054769;28;19998;-65
2021/07/03 00:07:38;;;;;;;;;;;12.30;99.90;;;;;;5041577;28;19940;-66
2021/07/03 00:10:27;;;;;;;;;;;12.20;99.90;;;;;;5046104;28;19924;-65
2021/07/03 00:13:16;;;;;;;;;;;12.20;99.90;;;;;;5053125;28;20269;-65
2021/07/03 00:16:05;;;;;;;;;;;12.20;99.90;;;;;;5044742;28;19925;-64
2021/07/03 00:18:54;;;;;;;;;;;12.10;99.90;;;;;;5052252;28;19984;-65
2021/07/03 00:21:43;;;;;;;;;;;12.10;99.90;;;;;;5054872;28;19932;-65
2021/07/03 00:24:32;;;;;;;;;;;12.20;99.90;;;;;;5055131;28;19929;-65
2021/07/03 00:27:20;;;;;;;;;;;12.20;99.90;;;;;;5056394;28;19933;-65
2021/07/03 00:30:10;;;;;;;;;;;12.20;99.90;;;;;;5047900;28;20068;-65
2021/07/03 00:32:59;;;;;;;;;;;12.20;99.90;;;;;;5031985;28;19925;-65
2021/07/03 00:35:48;;;;;;;;;;;12.10;99.90;;;;;;5030471;28;19926;-65
2021/07/03 00:38:38;;;;;;;;;;;12.10;99.90;;;;;;5028859;28;19929;-65
2021/07/03 00:41:26;;;;;;;;;;;12.10;99.90;;;;;;5028938;28;19971;-66
2021/07/03 00:44:40;;;;;;;;;;;12.00;99.90;;;;;;5027357;28;20392;-64
2021/07/03 00:47:30;;;;;;;;;;;12.00;99.90;;;;;;5037417;28;20011;-65
2021/07/03 00:50:19;;;;;;;;;;;12.00;99.90;;;;;;5031368;28;19947;-65
2021/07/03 00:53:08;;;;;;;;;;;11.90;99.90;;;;;;5023141;28;19928;-65
2021/07/03 00:56:00;;;;;;;;;;;11.90;99.90;;;;;;5021227;28;20001;-65
2021/07/03 00:58:48;;;;;;;;;;;11.90;99.90;;;;;;5037021;28;19925;-65
2021/07/03 01:01:38;;;;;;;;;;;11.90;99.90;;;;;;5038294;28;19929;-65
2021/07/03 01:04:27;;;;;;;;;;;11.90;99.90;;;;;;5041760;28;19925;-65
2021/07/03 01:07:16;;;;;;;;;;;12.00;99.90;;;;;;5054682;28;19967;-65
2021/07/03 01:10:17;;;;;;;;;;;12.00;99.90;;;;;;5040895;28;20381;-65
2021/07/03 01:13:08;;;;;;;;;;;12.10;99.90;;;;;;5055676;28;20333;-65
2021/07/03 01:15:57;;;;;;;;;;;12.10;99.90;;;;;;5047229;28;19931;-65
2021/07/03 01:18:49;;;;;;;;;;;12.30;99.90;;;;;;5040120;28;19925;-65
2021/07/03 01:21:38;;;;;;;;;;;12.30;99.90;;;;;;5078524;28;19979;-65
2021/07/03 01:24:29;;;;;;;;;;;12.40;99.90;;;;;;5067172;28;19931;-64
2021/07/03 01:27:18;;;;;;;;;;;12.40;99.90;;;;;;5069699;28;20466;-65
2021/07/03 01:30:12;;;;;;;;;;;12.50;99.90;;;;;;5031521;28;20072;-65
2021/07/03 01:33:01;;;;;;;;;;;12.60;99.90;;;;;;5029645;28;19925;-65
2021/07/03 01:35:51;;;;;;;;;;;12.60;99.90;;;;;;5030813;28;20297;-65
2021/07/03 01:38:43;;;;;;;;;;;12.70;99.90;;;;;;5033498;28;19932;-67
2021/07/03 01:41:36;;;;;;;;;;;12.70;99.90;;;;;;5034677;28;19951;-65
2021/07/03 01:44:27;;;;;;;;;;;12.80;99.90;;;;;;5028564;28;20029;-65
2021/07/03 01:47:16;;;;;;;;;;;12.80;99.90;;;;;;5035726;28;19925;-65
2021/07/03 01:50:06;;;;;;;;;;;12.80;99.90;;;;;;5044325;28;20023;-65
2021/07/03 01:52:55;;;;;;;;;;;12.70;99.90;;;;;;5056210;28;19936;-65
2021/07/03 01:55:46;;;;;;;;;;;12.70;99.90;;;;;;5061146;28;19932;-65
2021/07/03 01:58:38;;;;;;;;;;;12.70;99.90;;;;;;5073129;28;19929;-68
2021/07/03 02:01:39;;;;;;;;;;;12.70;99.90;;;;;;5050431;28;19924;-64
2021/07/03 02:04:29;;;;;;;;;;;12.70;99.90;;;;;;5054212;28;19925;-65
2021/07/03 02:07:19;;;;;;;;;;;12.70;99.90;;;;;;5055132;28;19925;-65
2021/07/03 02:10:08;;;;;;;;;;;12.70;99.90;;;;;;5046981;28;19933;-65
2021/07/03 02:12:57;;;;;;;;;;;12.80;99.90;;;;;;5037708;28;20420;-65
2021/07/03 02:15:54;;;;;;;;;;;12.80;99.90;;;;;;5036109;28;20038;-65
2021/07/03 02:18:50;;;;;;;;;;;12.90;99.90;;;;;;5051433;28;19925;-65
2021/07/03 02:21:44;;;;;;;;;;;12.80;99.90;;;;;;5041508;28;20031;-65
2021/07/03 02:24:41;;;;;;;;;;;12.80;99.90;;;;;;5054156;28;20440;-65
2021/07/03 02:27:31;;;;;;;;;;;12.80;99.90;;;;;;5048293;28;19936;-65
2021/07/03 02:33:42;;;;;;;;;;;12.80;99.90;;;;;;5046981;28;19949;-65
2021/07/03 02:36:35;;;;;;;;;;;12.70;99.90;;;;;;5026508;28;19932;-65
2021/07/03 02:39:29;;;;;;;;;;;12.60;99.90;;;;;;5040601;28;19931;-65
2021/07/03 02:42:18;;;;;;;;;;;12.50;99.90;;;;;;5033149;28;19925;-65
2021/07/03 02:45:09;;;;;;;;;;;12.50;99.90;;;;;;5032776;28;19924;-65
2021/07/03 02:47:58;;;;;;;;;;;12.50;99.90;;;;;;5035424;28;19925;-65
2021/07/03 02:50:48;;;;;;;;;;;12.50;99.90;;;;;;5037889;28;19976;-65
2021/07/03 02:53:37;;;;;;;;;;;12.50;99.90;;;;;;5053839;28;20365;-65
2021/07/03 02:56:26;;;;;;;;;;;12.40;99.90;;;;;;5036978;28;20369;-67
2021/07/03 02:59:16;;;;;;;;;;;12.30;99.90;;;;;;5039485;28;19924;-65
2021/07/03 03:02:05;;;;;;;;;;;12.30;99.90;;;;;;5048139;28;20027;-65
2021/07/03 03:04:56;;;;;;;;;;;12.30;99.90;;;;;;5046727;28;20000;-65
2021/07/03 03:07:48;;;;;;;;;;;12.30;99.90;;;;;;5049119;28;19968;-65
2021/07/03 03:10:38;;;;;;;;;;;12.20;99.90;;;;;;5050602;28;19932;-67
2021/07/03 03:13:27;;;;;;;;;;;12.20;99.90;;;;;;5032437;28;20330;-65
2021/07/03 03:16:16;;;;;;;;;;;12.20;99.90;;;;;;5036381;28;19940;-64
2021/07/03 03:19:05;;;;;;;;;;;12.20;99.90;;;;;;5033137;28;20311;-65
2021/07/03 03:21:54;;;;;;;;;;;12.10;99.90;;;;;;5050342;28;19991;-65
2021/07/03 03:24:45;;;;;;;;;;;12.00;99.90;;;;;;5036749;28;19955;-66
2021/07/03 03:27:34;;;;;;;;;;;12.00;99.90;;;;;;5037061;28;19925;-65
2021/07/03 03:30:23;;;;;;;;;;;11.90;99.90;;;;;;5030877;28;19933;-65
2021/07/03 03:33:37;;;;;;;;;;;11.90;99.90;;;;;;5050813;28;19924;-65
2021/07/03 03:36:59;;;;;;;;;;;11.90;99.90;;;;;;5049992;28;19926;-67
2021/07/03 03:39:49;;;;;;;;;;;11.90;99.90;;;;;;5028498;28;19925;-65
2021/07/03 03:42:39;;;;;;;;;;;11.80;99.90;;;;;;5050637;28;20297;-67
2021/07/03 03:45:30;;;;;;;;;;;11.80;99.90;;;;;;5028774;28;20006;-65
2021/07/03 03:48:21;;;;;;;;;;;11.80;99.90;;;;;;5048256;28;19925;-65
2021/07/03 03:51:15;;;;;;;;;;;11.80;99.90;;;;;;5052407;28;19937;-65
2021/07/03 03:54:06;;;;;;;;;;;11.80;99.90;;;;;;5049313;28;20186;-65
2021/07/03 04:00:07;;;;;;;;;;;11.90;99.90;;;;;;5045552;28;19956;-66
2021/07/03 04:03:02;;;;;;;;;;;12.00;99.90;;;;;;5050287;28;19960;-65
2021/07/03 04:05:59;;;;;;;;;;;12.00;99.90;;;;;;5039679;28;19945;-64
2021/07/03 04:08:49;;;;;;;;;;;12.00;99.90;;;;;;5046071;28;19943;-66
2021/07/03 04:11:38;;;;;;;;;;;12.00;99.90;;;;;;5053371;28;19986;-65
2021/07/03 04:14:28;;;;;;;;;;;12.00;99.90;;;;;;5051942;28;19925;-65
2021/07/03 04:17:17;;;;;;;;;;;12.10;99.90;;;;;;5046775;28;19952;-65
2021/07/03 04:20:08;;;;;;;;;;;12.20;99.90;;;;;;5056548;28;19925;-66
2021/07/03 04:22:56;;;;;;;;;;;12.20;99.90;;;;;;5058643;28;19929;-65
2021/07/03 04:25:44;;;;;;;;;;;12.30;99.90;;;;;;5049883;28;20011;-66
2021/07/03 04:28:33;;;;;;;;;;;12.30;99.90;;;;;;5051688;28;19973;-65
2021/07/03 04:31:23;;;;;;;;;;;12.40;99.90;;;;;;5045978;28;19940;-66
2021/07/03 04:34:12;;;;;;;;;;;12.50;99.90;;;;;;5048366;28;19931;-66
2021/07/03 04:37:01;;;;;;;;;;;12.50;99.90;;;;;;5047035;28;19944;-65
2021/07/03 04:39:50;;;;;;;;;;;12.60;99.90;;;;;;5049779;28;19925;-64
2021/07/03 04:42:38;;;;;;;;;;;12.70;99.90;;;;;;5052169;28;20457;-64
2021/07/03 04:45:29;;;;;;;;;;;12.90;99.90;;;;;;5035394;28;20011;-65
2021/07/03 04:48:19;;;;;;;;;;;13.00;99.90;;;;;;5028023;28;20389;-65
2021/07/03 04:51:10;;;;;;;;;;;13.10;99.90;;;;;;5028127;28;19933;-64
2021/07/03 04:54:24;;;;;;;;;;;13.20;99.90;;;;;;5030715;28;20008;-64
2021/07/03 04:57:12;;;;;;;;;;;13.30;99.90;;;;;;5034625;28;19980;-64
2021/07/03 05:03:14;;;;;;;;;;;13.70;99.90;;;;;;5033720;28;19941;-65
2021/07/03 05:06:04;;;;;;;;;;;13.90;99.90;;;;;;5022622;28;19956;-65
2021/07/03 05:12:05;;;;;;;;;;;14.20;99.90;;;;;;5036274;28;20023;-65
2021/07/03 05:14:57;;;;;;;;;;;14.40;99.90;;;;;;5037867;28;19925;-65
2021/07/03 05:17:46;;;;;;;;;;;14.40;99.90;;;;;;5036982;28;19932;-65
2021/07/03 05:20:35;;;;;;;;;;;14.60;99.90;;;;;;5032133;28;19925;-65
2021/07/03 05:23:24;;;;;;;;;;;14.90;99.90;;;;;;5031509;28;20292;-65
2021/07/03 05:26:13;;;;;;;;;;;15.00;99.90;;;;;;5046334;28;19932;-65
2021/07/03 05:29:01;;;;;;;;;;;15.40;99.90;;;;;;5037567;28;19936;-65
2021/07/03 05:31:51;;;;;;;;;;;15.70;99.90;;;;;;5030514;28;19925;-65
2021/07/03 05:34:40;;;;;;;;;;;15.80;99.90;;;;;;5032061;28;19926;-65
2021/07/03 05:37:28;;;;;;;;;;;16.00;99.90;;;;;;5037327;28;19929;-65
2021/07/03 05:40:19;;;;;;;;;;;16.20;99.90;;;;;;5037182;28;20370;-65
2021/07/03 05:43:08;;;;;;;;;;;16.40;99.90;;;;;;5035260;28;20297;-65
2021/07/03 05:45:57;;;;;;;;;;;16.20;99.90;;;;;;5048835;28;19929;-68
2021/07/03 05:48:45;;;;;;;;;;;16.40;99.90;;;;;;5054757;28;19931;-66
2021/07/03 05:51:34;;;;;;;;;;;16.50;99.90;;;;;;5055736;28;19924;-65
2021/07/03 05:54:22;;;;;;;;;;;17.20;99.90;;;;;;5052474;28;19941;-66
2021/07/03 05:57:37;;;;;;;;;;;17.40;99.90;;;;;;5051399;28;20023;-65
2021/07/03 06:00:26;;;;;;;;;;;17.90;99.90;;;;;;5045677;28;19929;-65
2021/07/03 06:03:15;;;;;;;;;;;18.10;99.90;;;;;;5053661;28;19944;-66
2021/07/03 06:06:04;;;;;;;;;;;17.80;99.90;;;;;;5054253;28;19938;-65
2021/07/03 06:08:52;;;;;;;;;;;17.90;99.90;;;;;;5053236;28;20007;-65
2021/07/03 06:12:05;;;;;;;;;;;17.70;99.90;;;;;;5052706;28;20012;-65
2021/07/03 06:14:55;;;;;;;;;;;18.10;99.90;;;;;;5053268;28;19948;-65
2021/07/03 06:17:44;;;;;;;;;;;18.40;99.90;;;;;;5054721;28;19929;-68
2021/07/03 06:20:39;;;;;;;;;;;18.20;99.90;;;;;;5046834;28;20365;-65
2021/07/03 06:23:28;;;;;;;;;;;18.50;99.90;;;;;;5062412;28;19928;-65
2021/07/03 06:26:21;;;;;;;;;;;19.20;99.90;;;;;;5051079;28;19929;-67
2021/07/03 06:29:09;;;;;;;;;;;19.40;99.90;;;;;;5060194;28;20127;-66
2021/07/03 06:31:59;;;;;;;;;;;18.30;99.90;;;;;;5058800;28;19928;-65
2021/07/03 06:34:48;;;;;;;;;;;18.30;99.90;;;;;;5052882;28;19982;-65
2021/07/03 06:37:37;;;;;;;;;;;18.50;99.90;;;;;;5049687;28;20325;-66
2021/07/03 06:40:26;;;;;;;;;;;18.90;99.90;;;;;;5065548;28;19924;-65
2021/07/03 06:43:14;;;;;;;;;;;19.50;99.90;;;;;;5068519;28;19929;-65
2021/07/03 06:46:03;;;;;;;;;;;19.50;99.90;;;;;;5029685;28;19925;-65
2021/07/03 06:48:53;;;;;;;;;;;19.80;99.90;;;;;;5033161;28;19933;-68
2021/07/03 06:51:42;;;;;;;;;;;19.40;99.90;;;;;;5032521;28;20000;-65
2021/07/03 06:54:36;;;;;;;;;;;19.10;99.90;;;;;;5032311;28;20008;-64
2021/07/03 06:57:25;;;;;;;;;;;19.70;99.90;;;;;;5031633;28;20400;-65
2021/07/03 07:00:14;;;;;;;;;;;20.50;99.90;;;;;;5014434;28;19932;-65
2021/07/03 07:03:03;;;;;;;;;;;21.40;99.90;;;;;;5031776;28;19925;-69
2021/07/03 07:05:53;;;;;;;;;;;23.20;99.80;;;;;;5020817;28;19932;-65
2021/07/03 07:08:41;;;;;;;;;;;24.80;98.20;;;;;;5033159;28;19925;-66
2021/07/03 07:11:36;;;;;;;;;;;25.50;95.30;;;;;;5031274;28;19933;-66
2021/07/03 07:14:24;;;;;;;;;;;27.60;90.50;;;;;;5023704;28;20000;-63
2021/07/03 07:17:13;;;;;;;;;;;27.90;82.50;;;;;;5023535;28;19937;-64
2021/07/03 07:20:02;;;;;;;;;;;27.20;83.10;;;;;;5035107;28;19925;-66
2021/07/03 07:22:52;;;;;;;;;;;27.60;86.40;;;;;;5043529;28;20057;-64
2021/07/03 07:25:40;;;;;;;;;;;30.60;74.90;;;;;;5037867;28;20016;-67
2021/07/03 07:28:28;;;;;;;;;;;30.10;71.40;;;;;;5037274;28;19936;-65
2021/07/03 07:31:17;;;;;;;;;;;30.50;69.20;;;;;;5025017;28;20011;-66
2021/07/03 07:34:06;;;;;;;;;;;32.20;64.20;;;;;;5028666;28;19955;-66
2021/07/03 07:36:54;;;;;;;;;;;32.70;61.40;;;;;;5030284;28;19932;-64
2021/07/03 07:39:46;;;;;;;;;;;30.80;63.10;;;;;;5028540;28;19987;-64
2021/07/03 07:42:34;;;;;;;;;;;32.90;60.40;;;;;;5022273;28;19925;-64
2021/07/03 07:45:23;;;;;;;;;;;34.10;53.40;;;;;;5018462;28;20408;-63
2021/07/03 07:48:29;;;;;;;;;;;36.80;50.00;;;;;;5025858;28;20214;-64
2021/07/03 07:51:19;;;;;;;;;;;34.40;48.10;;;;;;5042681;28;19929;-64
2021/07/03 07:54:08;;;;;;;;;;;32.20;55.50;;;;;;5031380;28;20037;-67
2021/07/03 07:56:59;;;;;;;;;;;30.10;59.20;;;;;;5033699;28;19925;-65
2021/07/03 07:59:48;;;;;;;;;;;32.70;56.80;;;;;;5028659;28;19960;-64
2021/07/03 08:02:37;;;;;;;;;;;33.40;54.10;;;;;;5045411;28;19935;-65
2021/07/03 08:05:27;;;;;;;;;;;33.50;54.00;;;;;;5033960;28;19926;-65
2021/07/03 08:08:16;;;;;;;;;;;34.10;52.10;;;;;;5036298;28;19925;-65
2021/07/03 08:11:05;;;;;;;;;;;32.00;55.40;;;;;;5039452;28;19925;-66
2021/07/03 08:13:55;;;;;;;;;;;32.10;57.00;;;;;;5033523;28;19926;-64
2021/07/03 08:16:43;;;;;;;;;;;33.70;53.20;;;;;;5024009;28;20012;-65
2021/07/03 08:19:33;;;;;;;;;;;34.90;49.90;;;;;;5034772;28;19932;-65
2021/07/03 08:22:21;;;;;;;;;;;36.90;47.00;;;;;;5035506;28;19931;-66
2021/07/03 08:25:11;;;;;;;;;;;36.40;45.20;;;;;;5031877;28;19996;-65
2021/07/03 08:27:59;;;;;;;;;;;32.40;52.80;;;;;;5037077;28;20008;-65
2021/07/03 08:30:49;;;;;;;;;;;29.90;57.00;;;;;;5034033;28;20020;-64
2021/07/03 08:33:38;;;;;;;;;;;30.50;58.40;;;;;;5025438;28;19925;-65
2021/07/03 08:36:27;;;;;;;;;;;29.40;61.40;;;;;;5035198;28;19925;-65
2021/07/03 08:39:15;;;;;;;;;;;28.90;65.00;;;;;;5041691;28;20316;-64
2021/07/03 08:42:04;;;;;;;;;;;30.00;60.90;;;;;;5039066;28;19932;-65
2021/07/03 08:44:57;;;;;;;;;;;29.60;58.60;;;;;;5041672;28;19925;-65
2021/07/03 08:47:48;;;;;;;;;;;30.60;58.20;;;;;;5059975;28;19932;-64
2021/07/03 08:50:37;;;;;;;;;;;31.70;57.20;;;;;;5058822;28;19930;-66
2021/07/03 08:53:26;;;;;;;;;;;31.00;56.40;;;;;;5053795;28;19925;-67
2021/07/03 08:56:14;;;;;;;;;;;32.00;55.80;;;;;;5049364;28;19931;-64
2021/07/03 08:59:14;;;;;;;;;;;30.20;58.20;;;;;;5056937;28;19925;-64
2021/07/03 09:02:03;;;;;;;;;;;28.30;63.60;;;;;;5049419;28;19928;-64
2021/07/03 09:05:17;;;;;;;;;;;28.80;64.80;;;;;;5063161;28;19932;-64
2021/07/03 09:08:32;;;;;;;;;;;32.30;55.80;;;;;;5054557;28;20019;-64
2021/07/03 09:11:21;;;;;;;;;;;32.50;54.40;;;;;;5060059;28;19929;-65
2021/07/03 09:14:36;;;;;;;;;;;31.50;56.10;;;;;;5055595;28;19968;-64
2021/07/03 09:17:26;;;;;;;;;;;29.00;60.70;;;;;;5047821;28;19925;-64
2021/07/03 09:20:21;;;;;;;;;;;27.80;64.20;;;;;;5053828;28;19931;-65
2021/07/03 09:23:11;;;;;;;;;;;27.10;66.40;;;;;;5063158;28;20444;-65
2021/07/03 09:26:03;;;;;;;;;;;26.40;69.10;;;;;;5066776;28;20010;-65
2021/07/03 09:28:51;;;;;;;;;;;28.70;65.10;;;;;;5050928;28;19933;-64
2021/07/03 09:31:43;;;;;;;;;;;31.50;56.60;;;;;;5055960;28;19935;-65
2021/07/03 09:34:31;;;;;;;;;;;31.40;56.70;;;;;;5054487;28;19939;-65
2021/07/03 09:37:20;;;;;;;;;;;32.70;55.60;;;;;;5064183;28;19931;-65
2021/07/03 09:40:10;;;;;;;;;;;31.90;55.30;;;;;;5063261;28;19951;-66
2021/07/03 09:43:09;;;;;;;;;;;31.60;54.10;;;;;;5054088;28;19928;-64
2021/07/03 09:45:57;;;;;;;;;;;30.80;56.50;;;;;;5027546;28;20397;-65
2021/07/03 09:48:49;;;;;;;;;;;29.00;60.70;;;;;;5031903;28;19968;-65
2021/07/03 09:51:41;;;;;;;;;;;27.50;65.40;;;;;;5034090;28;19959;-66
2021/07/03 09:54:54;;;;;;;;;;;26.40;67.30;;;;;;5020521;28;19928;-65
2021/07/03 09:57:43;;;;;;;;;;;26.10;70.30;;;;;;5031635;28;19931;-64
2021/07/03 10:00:34;;;;;;;;;;;25.60;70.50;;;;;;5028645;28;20004;-64
2021/07/03 10:03:22;;;;;;;;;;;25.40;72.70;;;;;;5028260;28;19928;-64
2021/07/03 10:06:13;;;;;;;;;;;25.40;76.50;;;;;;5032813;28;19925;-63
2021/07/03 10:09:07;;;;;;;;;;;25.90;73.40;;;;;;5032664;28;19929;-64
2021/07/03 10:11:57;;;;;;;;;;;26.50;68.90;;;;;;5032773;28;19948;-62
2021/07/03 10:14:48;;;;;;;;;;;26.80;66.20;;;;;;5034714;28;20015;-63
2021/07/03 10:17:39;;;;;;;;;;;26.50;67.10;;;;;;5036543;28;19996;-63
2021/07/03 10:20:32;;;;;;;;;;;25.00;70.20;;;;;;5040804;28;19925;-63
2021/07/03 10:23:21;;;;;;;;;;;24.90;74.30;;;;;;5032626;28;19925;-64
2021/07/03 10:26:10;;;;;;;;;;;24.80;74.60;;;;;;5030220;28;20265;-63
2021/07/03 10:28:58;;;;;;;;;;;24.70;77.60;;;;;;5034312;28;20304;-64
2021/07/03 10:31:48;;;;;;;;;;;25.00;77.10;;;;;;5027815;28;19956;-64
2021/07/03 10:34:38;;;;;;;;;;;24.90;78.90;;;;;;5036679;28;19951;-64
2021/07/03 10:37:32;;;;;;;;;;;25.10;78.90;;;;;;5018838;28;20019;-64
2021/07/03 10:40:21;;;;;;;;;;;25.60;78.30;;;;;;5032203;28;19925;-65
2021/07/03 10:43:12;;;;;;;;;;;26.50;76.10;;;;;;5034544;28;20020;-64
2021/07/03 10:46:01;;;;;;;;;;;26.50;75.10;;;;;;5030826;28;19925;-65
2021/07/03 10:48:54;;;;;;;;;;;26.70;74.20;;;;;;5040472;28;20265;-63
2021/07/03 10:51:46;;;;;;;;;;;27.20;71.80;;;;;;5029276;28;19936;-64
2021/07/03 10:54:36;;;;;;;;;;;24.80;75.00;;;;;;5038686;28;19980;-64
2021/07/03 10:57:26;;;;;;;;;;;24.20;79.60;;;;;;5037867;28;20016;-63
2021/07/03 11:00:21;;;;;;;;;;;25.00;80.00;;;;;;5024864;28;19925;-62
2021/07/03 11:03:14;;;;;;;;;;;25.80;77.00;;;;;;5022187;28;19976;-63
2021/07/03 11:06:12;;;;;;;;;;;26.00;75.50;;;;;;5035196;28;19924;-63
2021/07/03 11:09:05;;;;;;;;;;;26.80;72.60;;;;;;5032725;28;20389;-62
2021/07/03 11:11:56;;;;;;;;;;;27.00;71.90;;;;;;5028193;28;19929;-63
2021/07/03 11:14:48;;;;;;;;;;;27.00;71.30;;;;;;5033519;28;19932;-64
2021/07/03 11:17:37;;;;;;;;;;;27.30;71.30;;;;;;5037242;28;20245;-64
2021/07/03 11:20:27;;;;;;;;;;;27.90;69.40;;;;;;5027761;28;19957;-64
2021/07/03 11:23:19;;;;;;;;;;;28.50;65.80;;;;;;5016233;28;19936;-64
2021/07/03 11:26:10;;;;;;;;;;;27.90;66.80;;;;;;5036029;28;20301;-64
2021/07/03 11:29:01;;;;;;;;;;;27.50;66.60;;;;;;5039005;28;19999;-64
2021/07/03 11:31:50;;;;;;;;;;;27.70;66.20;;;;;;5030333;28;20044;-64
2021/07/03 11:34:39;;;;;;;;;;;27.60;68.80;;;;;;5028600;28;20047;-65
2021/07/03 11:37:29;;;;;;;;;;;26.80;69.90;;;;;;5038407;28;19933;-64
2021/07/03 11:40:18;;;;;;;;;;;26.50;69.50;;;;;;5026029;28;19988;-63
2021/07/03 11:43:09;;;;;;;;;;;26.50;70.00;;;;;;5034667;28;19924;-63
2021/07/03 11:46:02;;;;;;;;;;;25.60;71.10;;;;;;5024439;28;20380;-64
2021/07/03 11:48:50;;;;;;;;;;;25.70;73.70;;;;;;5020779;28;19924;-63
2021/07/03 11:51:39;;;;;;;;;;;25.20;74.60;;;;;;5049121;28;19924;-64
2021/07/03 11:54:28;;;;;;;;;;;25.20;75.20;;;;;;5050742;28;20452;-63
2021/07/03 11:57:17;;;;;;;;;;;25.30;77.30;;;;;;5040591;28;19925;-63
2021/07/03 12:00:08;;;;;;;;;;;25.60;76.40;;;;;;5051741;28;19928;-64
2021/07/03 12:02:58;;;;;;;;;;;25.90;73.30;;;;;;5052569;28;19932;-63
2021/07/03 12:05:50;;;;;;;;;;;26.00;72.60;;;;;;5041024;28;19926;-63
2021/07/03 12:08:39;;;;;;;;;;;25.80;71.60;;;;;;5041187;28;19925;-64
2021/07/03 12:14:44;;;;;;;;;;;25.00;73.50;;;;;;5051862;28;19924;-64
2021/07/03 12:17:34;;;;;;;;;;;25.00;73.90;;;;;;5026644;28;19932;-63
2021/07/03 12:20:22;;;;;;;;;;;24.40;80.00;;;;;;5029922;28;19948;-65
2021/07/03 12:23:11;;;;;;;;;;;24.70;81.70;;;;;;5035311;28;20429;-64
2021/07/03 12:25:59;;;;;;;;;;;24.70;76.10;;;;;;5033355;28;19925;-63
2021/07/03 12:28:52;;;;;;;;;;;25.00;77.20;;;;;;5030058;28;19932;-64
2021/07/03 12:31:42;;;;;;;;;;;25.50;74.40;;;;;;5036234;28;20007;-64
2021/07/03 12:34:35;;;;;;;;;;;25.30;74.20;;;;;;5054026;28;20008;-64
2021/07/03 12:37:24;;;;;;;;;;;25.00;77.10;;;;;;5057369;28;20008;-64
2021/07/03 12:40:13;;;;;;;;;;;25.20;76.10;;;;;;5049746;28;19975;-65
2021/07/03 12:43:02;;;;;;;;;;;25.20;79.00;;;;;;5067117;28;20050;-64
2021/07/03 12:45:59;;;;;;;;;;;25.30;75.00;;;;;;5044536;28;19924;-64
2021/07/03 12:48:48;;;;;;;;;;;25.30;75.10;;;;;;5073973;28;19924;-64
2021/07/03 12:51:40;;;;;;;;;;;25.20;78.10;;;;;;5072472;28;19928;-65
2021/07/03 12:54:29;;;;;;;;;;;25.00;76.80;;;;;;5061956;28;19996;-64
2021/07/03 12:57:17;;;;;;;;;;;25.00;77.30;;;;;;5065786;28;19960;-64
2021/07/03 13:00:07;;;;;;;;;;;24.80;77.30;;;;;;5052364;28;20391;-64
2021/07/03 13:02:55;;;;;;;;;;;24.90;77.40;;;;;;5051336;28;19935;-63
2021/07/03 13:05:47;;;;;;;;;;;25.00;78.30;;;;;;5053849;28;19924;-63
2021/07/03 13:08:37;;;;;;;;;;;25.40;77.40;;;;;;5050466;28;19936;-63
2021/07/03 13:14:44;;;;;;;;;;;26.10;77.60;;;;;;5072399;28;20349;-66
2021/07/03 13:17:33;;;;;;;;;;;25.90;75.20;;;;;;5051757;28;19925;-63
2021/07/03 13:20:21;;;;;;;;;;;26.40;74.50;;;;;;5050002;28;19924;-63
2021/07/03 13:23:10;;;;;;;;;;;26.80;73.80;;;;;;5058827;28;19982;-65
2021/07/03 13:26:00;;;;;;;;;;;25.70;71.10;;;;;;5053707;28;20066;-63
2021/07/03 13:28:48;;;;;;;;;;;25.90;71.40;;;;;;5058765;28;20713;-63
2021/07/03 13:31:37;;;;;;;;;;;25.60;72.70;;;;;;5045317;28;19929;-63
2021/07/03 13:34:26;;;;;;;;;;;25.60;72.00;;;;;;5044123;28;20365;-63
2021/07/03 13:37:17;;;;;;;;;;;25.60;71.40;;;;;;5047896;28;19998;-63
2021/07/03 13:40:07;;;;;;;;;;;25.80;72.30;;;;;;5046625;28;20794;-62
2021/07/03 13:43:00;;;;;;;;;;;25.80;74.00;;;;;;5025226;28;19933;-63
2021/07/03 13:45:49;;;;;;;;;;;26.20;73.50;;;;;;5035824;28;20011;-63
2021/07/03 13:48:42;;;;;;;;;;;26.30;71.90;;;;;;5054892;28;20140;-63
2021/07/03 13:51:30;;;;;;;;;;;26.10;71.60;;;;;;5054966;28;20012;-64
2021/07/03 13:54:19;;;;;;;;;;;25.80;72.00;;;;;;5045384;28;20005;-64
2021/07/03 13:57:08;;;;;;;;;;;25.90;72.10;;;;;;5056093;28;19932;-63
2021/07/03 13:59:58;;;;;;;;;;;25.90;72.60;;;;;;5044986;28;19936;-64
2021/07/03 14:02:47;;;;;;;;;;;26.40;71.50;;;;;;5053155;28;19988;-62
2021/07/03 14:05:38;;;;;;;;;;;27.00;70.20;;;;;;5054153;28;19936;-63
2021/07/03 14:08:29;;;;;;;;;;;28.00;69.40;;;;;;5053764;28;19952;-63
2021/07/03 14:11:18;;;;;;;;;;;28.10;68.00;;;;;;5054064;28;20066;-63
2021/07/03 14:14:07;;;;;;;;;;;28.20;68.10;;;;;;5061172;28;20024;-63
2021/07/03 14:16:58;;;;;;;;;;;27.90;67.50;;;;;;5045664;28;19929;-63
2021/07/03 14:19:46;;;;;;;;;;;27.50;67.60;;;;;;5051145;28;19955;-63
2021/07/03 14:22:35;;;;;;;;;;;26.70;68.70;;;;;;5046031;28;20019;-63
2021/07/03 14:25:24;;;;;;;;;;;26.20;72.50;;;;;;5047056;28;19928;-63
2021/07/03 14:28:12;;;;;;;;;;;26.30;71.20;;;;;;5053217;28;19925;-63
2021/07/03 14:31:01;;;;;;;;;;;25.90;71.30;;;;;;5050047;28;19925;-63
2021/07/03 14:37:09;;;;;;;;;;;25.20;74.30;;;;;;5051849;28;19935;-63
2021/07/03 14:39:58;;;;;;;;;;;25.90;72.30;;;;;;5055881;28;20004;-63
2021/07/03 14:42:46;;;;;;;;;;;26.20;71.40;;;;;;5051559;28;20363;-64
2021/07/03 14:45:36;;;;;;;;;;;25.80;71.50;;;;;;5044424;28;19940;-62
2021/07/03 14:48:25;;;;;;;;;;;26.10;74.00;;;;;;5065921;28;19939;-63
2021/07/03 14:51:15;;;;;;;;;;;26.40;71.10;;;;;;5059705;28;20249;-63
2021/07/03 14:54:05;;;;;;;;;;;26.10;70.50;;;;;;5052582;28;19975;-63
2021/07/03 14:56:55;;;;;;;;;;;25.80;73.10;;;;;;5066069;28;20260;-64
2021/07/03 14:59:44;;;;;;;;;;;25.50;72.80;;;;;;5070176;28;19932;-63
2021/07/03 15:02:32;;;;;;;;;;;25.70;74.30;;;;;;5055675;28;19947;-63
2021/07/03 15:05:21;;;;;;;;;;;26.00;72.20;;;;;;5065240;28;20292;-63
2021/07/03 15:08:11;;;;;;;;;;;26.00;73.00;;;;;;5070093;28;20019;-63
2021/07/03 15:11:00;;;;;;;;;;;26.30;71.50;;;;;;5069071;28;19925;-63
2021/07/03 15:13:49;;;;;;;;;;;26.40;71.20;;;;;;5070622;28;19932;-63
2021/07/03 15:16:38;;;;;;;;;;;26.10;71.00;;;;;;5056520;28;20395;-64
2021/07/03 15:19:26;;;;;;;;;;;26.30;71.40;;;;;;5055427;28;19948;-63
2021/07/03 15:22:15;;;;;;;;;;;26.50;72.10;;;;;;5060475;28;20058;-63
2021/07/03 15:25:09;;;;;;;;;;;26.60;71.50;;;;;;5059185;28;19925;-64
2021/07/03 15:27:58;;;;;;;;;;;26.60;70.90;;;;;;5063311;28;19924;-64
2021/07/03 15:30:46;;;;;;;;;;;26.50;71.90;;;;;;5046411;28;19935;-62
2021/07/03 15:33:35;;;;;;;;;;;26.50;70.30;;;;;;5056116;28;20015;-63
2021/07/03 15:36:25;;;;;;;;;;;26.40;70.30;;;;;;5063773;28;19966;-62
2021/07/03 15:39:15;;;;;;;;;;;26.40;70.80;;;;;;5058685;28;20345;-64
2021/07/03 15:42:05;;;;;;;;;;;26.40;71.10;;;;;;5065910;28;19925;-62
2021/07/03 15:44:54;;;;;;;;;;;26.50;70.80;;;;;;5066562;28;19931;-63
2021/07/03 15:47:43;;;;;;;;;;;26.70;69.60;;;;;;5071708;28;19929;-63
2021/07/03 15:50:32;;;;;;;;;;;26.70;70.20;;;;;;5049236;28;20285;-63
2021/07/03 15:53:20;;;;;;;;;;;26.70;70.10;;;;;;5051897;28;19939;-63
2021/07/03 15:56:09;;;;;;;;;;;26.50;70.20;;;;;;5061802;28;19935;-63
2021/07/03 15:58:59;;;;;;;;;;;26.00;72.50;;;;;;5057589;28;19925;-63
2021/07/03 16:01:48;;;;;;;;;;;25.50;71.70;;;;;;5052484;28;19932;-63
2021/07/03 16:04:37;;;;;;;;;;;25.50;72.60;;;;;;5054736;28;19933;-63
2021/07/03 16:07:26;;;;;;;;;;;25.60;73.10;;;;;;5064968;28;20388;-63
2021/07/03 16:10:14;;;;;;;;;;;25.80;74.60;;;;;;5056207;28;20011;-63
2021/07/03 16:13:03;;;;;;;;;;;26.00;73.80;;;;;;5046073;28;19964;-63
2021/07/03 16:16:16;;;;;;;;;;;26.30;73.20;;;;;;5041657;28;19976;-64
2021/07/03 16:19:06;;;;;;;;;;;26.20;72.80;;;;;;5055563;28;20036;-63
2021/07/03 16:21:55;;;;;;;;;;;25.90;73.50;;;;;;5056027;28;19940;-62
2021/07/03 16:24:43;;;;;;;;;;;25.80;73.00;;;;;;5050924;28;19932;-63
2021/07/03 16:27:32;;;;;;;;;;;25.80;73.00;;;;;;5055773;28;19928;-63
2021/07/03 16:30:21;;;;;;;;;;;25.70;71.70;;;;;;5050109;28;19966;-63
2021/07/03 16:33:10;;;;;;;;;;;25.70;72.20;;;;;;5053459;28;20415;-63
2021/07/03 16:36:00;;;;;;;;;;;25.80;72.70;;;;;;5051195;28;19964;-63
2021/07/03 16:38:49;;;;;;;;;;;26.00;71.50;;;;;;5049282;28;19948;-62
2021/07/03 16:41:37;;;;;;;;;;;26.20;71.00;;;;;;5052087;28;20065;-63
2021/07/03 16:44:26;;;;;;;;;;;26.10;70.60;;;;;;5051783;28;19987;-63
2021/07/03 16:47:14;;;;;;;;;;;25.90;71.00;;;;;;5041432;28;20325;-63
2021/07/03 16:50:03;;;;;;;;;;;25.50;71.50;;;;;;5043952;28;19925;-63
2021/07/03 16:52:53;;;;;;;;;;;25.20;73.40;;;;;;5062149;28;19960;-63
2021/07/03 16:55:44;;;;;;;;;;;25.10;73.70;;;;;;5062424;28;19932;-63